Time;durP1;ratioP1;P1;durP2;ratioP2;P2;SDS_P1;SDS_P2;PMS_P1;PMS_P2;Temp;Humidity;BMP_temperature;BMP_pressure;BME280_temperature;BME280_humidity;BME280_pressure;Samples;Min_cycle;Max_cycle;Signal;HPM_P1;HPM_P2
2021/07/02 00:02:08;;;;;;;27.77;16.93;;;;;;;16.59;86.30;101520.19;4994438;28;20301;-75
2021/07/02 00:04:34;;;;;;;36.30;20.20;;;;;;;16.68;86.30;101521.56;4996953;28;20721;-74
2021/07/02 00:07:02;;;;;;;28.87;18.00;;;;;;;16.65;85.78;101505.75;4992052;28;20227;-74
2021/07/02 00:09:28;;;;;;;31.30;18.00;;;;;;;16.46;86.11;101502.19;5000102;28;20204;-73
2021/07/02 00:11:53;;;;;;;30.00;19.00;;;;;;;16.46;87.01;101539.25;4998011;28;20491;-74
2021/07/02 00:14:19;;;;;;;25.20;16.60;;;;;;;16.67;86.42;101538.03;4998846;28;20662;-74
2021/07/02 00:16:45;;;;;;;26.97;18.40;;;;;;;16.33;86.14;101480.63;4996705;28;21085;-73
2021/07/02 00:19:10;;;;;;;36.63;20.37;;;;;;;16.14;86.86;101485.16;4994920;28;20267;-74
2021/07/02 00:21:36;;;;;;;28.70;19.37;;;;;;;15.90;86.39;101448.91;4999396;28;20705;-73
2021/07/02 00:24:01;;;;;;;29.73;18.50;;;;;;;16.42;86.23;101532.63;4997199;28;20777;-73
2021/07/02 00:26:27;;;;;;;25.73;17.53;;;;;;;16.58;85.94;101523.94;4998238;28;20208;-74
2021/07/02 00:28:52;;;;;;;26.97;17.70;;;;;;;16.27;86.50;101503.16;5000171;28;20177;-74
2021/07/02 00:31:20;;;;;;;30.57;17.33;;;;;;;16.66;86.00;101537.22;4998253;28;20234;-74
2021/07/02 00:33:46;;;;;;;33.97;17.60;;;;;;;16.46;86.38;101537.38;4998091;28;20275;-74
2021/07/02 00:36:11;;;;;;;33.73;18.17;;;;;;;16.27;86.28;101519.41;4992151;28;20916;-75
2021/07/02 00:38:37;;;;;;;30.97;18.07;;;;;;;16.59;85.89;101546.44;4999353;28;20185;-77
2021/07/02 00:41:03;;;;;;;28.73;19.10;;;;;;;16.50;85.55;101544.00;4995019;28;20278;-73
2021/07/02 00:43:28;;;;;;;30.87;19.17;;;;;;;16.42;85.82;101528.03;4990438;28;20189;-74
2021/07/02 00:45:54;;;;;;;22.30;15.40;;;;;;;16.67;85.22;101522.63;4997168;28;20192;-73
2021/07/02 00:48:19;;;;;;;36.17;17.07;;;;;;;16.40;85.47;101515.75;4991896;28;20208;-73
2021/07/02 00:50:45;;;;;;;31.67;18.60;;;;;;;16.00;85.83;101481.72;4987579;28;20208;-74
2021/07/02 00:53:13;;;;;;;30.80;17.43;;;;;;;16.21;85.35;101488.63;4991307;28;20667;-73
2021/07/02 00:55:41;;;;;;;28.73;17.80;;;;;;;16.30;85.31;101499.19;4997987;28;21166;-74
2021/07/02 00:58:06;;;;;;;25.50;17.27;;;;;;;16.49;85.41;101538.81;4992734;28;20439;-74
2021/07/02 01:00:32;;;;;;;24.17;17.10;;;;;;;16.21;85.46;101506.75;4999448;28;20465;-76
2021/07/02 01:02:57;;;;;;;31.47;18.27;;;;;;;16.14;86.08;101496.00;5001235;28;20189;-74
2021/07/02 01:05:23;;;;;;;26.47;16.67;;;;;;;15.62;86.06;101408.69;4999112;28;20200;-73
2021/07/02 01:07:48;;;;;;;34.30;17.90;;;;;;;15.83;86.22;101450.84;5007891;28;20177;-74
2021/07/02 01:10:17;;;;;;;29.70;17.80;;;;;;;15.92;87.03;101503.63;4994634;28;20679;-74
2021/07/02 01:12:43;;;;;;;23.97;16.50;;;;;;;15.56;86.75;101437.47;4989870;28;20231;-74
2021/07/02 01:15:23;;;;;;;36.03;18.00;;;;;;;16.19;86.42;101515.09;4992255;28;20472;-73
2021/07/02 01:17:48;;;;;;;31.90;16.40;;;;;;;15.97;87.19;101511.94;4990959;28;20554;-77
2021/07/02 01:20:15;;;;;;;24.60;16.63;;;;;;;16.04;87.14;101528.94;4994943;28;20462;-74
2021/07/02 01:22:40;;;;;;;25.03;15.93;;;;;;;15.82;86.85;101498.72;5005380;28;20194;-73
2021/07/02 01:25:06;;;;;;;31.33;18.90;;;;;;;16.12;86.39;101527.03;4991947;28;20508;-73
2021/07/02 01:27:33;;;;;;;28.43;17.07;;;;;;;16.00;86.69;101508.78;4993346;28;20208;-74
2021/07/02 01:29:59;;;;;;;26.70;16.63;;;;;;;16.13;86.47;101532.22;5004353;28;20205;-73
2021/07/02 01:32:24;;;;;;;24.47;15.17;;;;;;;15.69;86.49;101482.53;5001456;28;20451;-73
2021/07/02 01:34:50;;;;;;;25.37;16.10;;;;;;;15.72;86.64;101487.50;4998545;28;20685;-72
2021/07/02 01:37:16;;;;;;;26.37;17.30;;;;;;;15.86;86.63;101506.38;5003510;28;20185;-74
2021/07/02 01:39:41;;;;;;;30.30;20.10;;;;;;;15.84;87.01;101520.13;4998589;28;20220;-72
2021/07/02 01:42:08;;;;;;;25.40;17.40;;;;;;;16.08;86.26;101528.50;4997580;28;20208;-72
2021/07/02 01:44:34;;;;;;;22.00;15.47;;;;;;;15.91;86.05;101491.16;4986673;28;20526;-73
2021/07/02 01:47:00;;;;;;;27.83;16.93;;;;;;;16.08;86.25;101532.03;4993007;28;20443;-72
2021/07/02 01:49:28;;;;;;;26.40;17.90;;;;;;;15.91;86.99;101526.31;4995666;28;20192;-73
2021/07/02 01:51:54;;;;;;;23.33;15.93;;;;;;;16.15;85.81;101524.72;5000571;28;20347;-73
2021/07/02 01:54:20;;;;;;;32.93;16.60;;;;;;;15.90;86.34;101535.47;4992706;28;20567;-73
2021/07/02 01:56:49;;;;;;;21.73;15.40;;;;;;;15.80;85.81;101483.72;4996991;28;20440;-72
2021/07/02 01:59:18;;;;;;;27.23;16.13;;;;;;;15.89;86.57;101524.88;4992732;28;20250;-73
2021/07/02 02:01:46;;;;;;;23.80;15.47;;;;;;;15.82;86.77;101535.72;4993255;28;20550;-74
2021/07/02 02:04:12;;;;;;;24.13;15.60;;;;;;;15.82;86.74;101530.31;4987573;28;20481;-72
2021/07/02 02:06:38;;;;;;;22.27;14.63;;;;;;;15.91;86.49;101534.44;4989515;28;20440;-71
2021/07/02 02:09:05;;;;;;;23.10;15.63;;;;;;;15.66;85.93;101484.81;4990340;28;20292;-76
2021/07/02 02:11:31;;;;;;;21.80;14.60;;;;;;;15.77;86.36;101511.22;4994114;28;20259;-72
2021/07/02 02:13:57;;;;;;;22.90;14.53;;;;;;;15.76;86.74;101514.94;4995518;28;20468;-73
2021/07/02 02:16:22;;;;;;;24.00;16.07;;;;;;;15.54;86.88;101493.63;5005071;28;20851;-72
2021/07/02 02:18:48;;;;;;;20.83;14.50;;;;;;;15.68;86.80;101512.50;4993996;28;20579;-71
2021/07/02 02:21:13;;;;;;;18.20;13.47;;;;;;;15.89;86.62;101525.72;4988149;28;20221;-72
2021/07/02 02:23:39;;;;;;;23.60;14.70;;;;;;;15.79;86.96;101526.19;4994951;28;20204;-72
2021/07/02 02:26:04;;;;;;;19.50;13.33;;;;;;;16.03;85.78;101521.06;4998915;28;20196;-72
2021/07/02 02:28:30;;;;;;;23.63;14.70;;;;;;;15.58;86.43;101480.50;5000481;28;20634;-72
2021/07/02 02:30:55;;;;;;;19.27;13.87;;;;;;;15.87;86.53;101538.63;4997452;28;20232;-72
2021/07/02 02:33:21;;;;;;;18.67;12.87;;;;;;;15.97;85.88;101528.16;4992275;28;20197;-70
2021/07/02 02:35:46;;;;;;;21.33;12.93;;;;;;;16.00;85.74;101522.31;4990152;28;20205;-73
2021/07/02 02:38:12;;;;;;;24.27;14.30;;;;;;;15.78;86.52;101537.22;4989995;28;20200;-71
2021/07/02 02:40:37;;;;;;;19.83;14.50;;;;;;;15.70;86.87;101527.47;4992586;28;20225;-71
2021/07/02 02:43:03;;;;;;;21.60;13.97;;;;;;;15.53;86.73;101486.53;4995150;28;20630;-73
2021/07/02 02:45:29;;;;;;;22.53;14.33;;;;;;;15.78;86.53;101526.41;4997620;28;20269;-71
2021/07/02 02:47:54;;;;;;;19.80;12.00;;;;;;;15.81;86.06;101510.56;4992507;28;20196;-72
2021/07/02 02:50:19;;;;;;;17.03;11.93;;;;;;;16.03;85.34;101504.81;4987494;28;20217;-72
2021/07/02 02:52:45;;;;;;;19.43;13.70;;;;;;;15.75;85.95;101521.41;4990647;28;20200;-77
2021/07/02 02:55:10;;;;;;;21.00;13.87;;;;;;;15.39;85.56;101428.22;4998738;28;20260;-73
2021/07/02 02:57:36;;;;;;;21.17;14.83;;;;;;;15.78;85.54;101523.69;5001784;28;20205;-74
2021/07/02 03:00:05;;;;;;;17.20;13.67;;;;;;;15.54;85.73;101493.63;4997952;28;20296;-73
2021/07/02 03:02:30;;;;;;;18.60;13.83;;;;;;;15.77;85.99;101524.75;4996243;28;20197;-73
2021/07/02 03:04:55;;;;;;;25.53;13.40;;;;;;;15.68;85.39;101510.66;5014201;28;20466;-73
2021/07/02 03:07:21;;;;;;;18.53;11.53;;;;;;;15.96;84.79;101521.06;4991974;28;20593;-72
2021/07/02 03:09:52;;;;;;;21.90;14.03;;;;;;;15.65;85.36;101504.78;5003687;28;20189;-74
2021/07/02 03:12:20;;;;;;;22.63;14.77;;;;;;;15.50;85.50;101497.78;4996483;28;20227;-74
2021/07/02 03:14:46;;;;;;;20.57;15.10;;;;;;;15.66;85.62;101519.97;4999399;28;20468;-73
2021/07/02 03:17:11;;;;;;;22.50;14.10;;;;;;;15.72;85.17;101508.34;4992699;28;20435;-72
2021/07/02 03:19:37;;;;;;;27.17;13.90;;;;;;;15.33;85.29;101456.94;4991699;28;20192;-75
2021/07/02 03:22:03;;;;;;;26.57;14.73;;;;;;;15.70;86.08;101534.75;4995172;28;20574;-74
2021/07/02 03:24:28;;;;;;;26.43;14.87;;;;;;;15.57;86.58;101527.50;4999176;28;20215;-74
2021/07/02 03:26:54;;;;;;;27.33;15.63;;;;;;;15.73;86.06;101535.13;4992417;28;20530;-75
2021/07/02 03:29:19;;;;;;;27.30;15.10;;;;;;;15.69;85.85;101516.88;4995321;28;20181;-75
2021/07/02 03:31:45;;;;;;;32.70;18.03;;;;;;;15.73;85.98;101532.44;4994950;28;20206;-73
2021/07/02 03:34:10;;;;;;;29.10;17.00;;;;;;;15.67;86.17;101532.44;4994929;28;20586;-71
2021/07/02 03:36:36;;;;;;;27.80;16.07;;;;;;;15.44;86.15;101493.25;4988064;28;20189;-72
2021/07/02 03:39:04;;;;;;;22.33;15.40;;;;;;;15.70;86.43;101523.94;4989686;28;20193;-72
2021/07/02 03:41:29;;;;;;;26.60;16.07;;;;;;;15.54;86.56;101517.13;4990117;28;20296;-71
2021/07/02 03:43:55;;;;;;;24.67;15.20;;;;;;;15.51;85.93;101487.81;4998751;28;20532;-74
2021/07/02 03:46:20;;;;;;;26.57;15.30;;;;;;;15.82;85.49;101536.56;4995526;28;20200;-72
2021/07/02 03:48:46;;;;;;;27.80;14.83;;;;;;;15.81;85.83;101536.78;4994648;28;20189;-72
2021/07/02 03:51:12;;;;;;;20.77;13.97;;;;;;;15.84;85.95;101528.22;4993826;28;20223;-72
2021/07/02 03:53:37;;;;;;;24.37;14.57;;;;;;;15.87;85.41;101537.78;4994726;28;20193;-73
2021/07/02 03:56:03;;;;;;;26.10;14.40;;;;;;;15.70;85.56;101518.53;4995540;28;20452;-73
2021/07/02 03:58:29;;;;;;;23.10;14.13;;;;;;;15.76;85.94;101539.28;5000174;28;20251;-77
2021/07/02 04:00:54;;;;;;;19.60;13.03;;;;;;;15.75;85.92;101540.34;4993496;28;20460;-73
2021/07/02 04:03:20;;;;;;;25.10;12.63;;;;;;;15.98;85.08;101550.63;4993913;28;20238;-74
2021/07/02 04:05:46;;;;;;;25.83;12.60;;;;;;;15.93;85.28;101545.03;4994479;28;20184;-74
2021/07/02 04:08:12;;;;;;;20.93;12.60;;;;;;;15.61;86.37;101544.94;4993775;28;20598;-73
2021/07/02 04:10:37;;;;;;;25.30;11.53;;;;;;;15.45;85.58;101484.09;4996371;28;20533;-74
2021/07/02 04:13:03;;;;;;;21.10;11.70;;;;;;;15.58;86.22;101558.91;4989743;28;20954;-73
2021/07/02 04:15:28;;;;;;;24.50;12.00;;;;;;;15.36;86.69;101543.00;4993015;28;20197;-74
2021/07/02 04:17:54;;;;;;;16.33;10.00;;;;;;;15.71;85.81;101558.06;4994952;28;20280;-73
2021/07/02 04:20:20;;;;;;;15.83;10.33;;;;;;;15.79;84.96;101549.69;4993993;28;20212;-75
2021/07/02 04:22:48;;;;;;;26.10;10.60;;;;;;;15.37;85.53;101520.31;5004979;28;20193;-74
2021/07/02 04:25:14;;;;;;;21.03;10.63;;;;;;;15.56;85.60;101550.16;5000724;28;20236;-73
2021/07/02 04:27:40;;;;;;;18.00;10.37;;;;;;;15.62;85.58;101564.72;4998143;28;20439;-73
2021/07/02 04:30:07;;;;;;;16.50;10.50;;;;;;;15.66;85.41;101552.44;4992436;28;20684;-73
2021/07/02 04:32:32;;;;;;;18.87;10.40;;;;;;;15.56;85.59;101579.91;5003044;28;21265;-74
2021/07/02 04:34:58;;;;;;;17.00;9.57;;;;;;;15.55;85.39;101568.28;5002774;28;20465;-78
2021/07/02 04:37:23;;;;;;;13.50;9.67;;;;;;;15.38;86.02;101553.56;5000475;28;20193;-73
2021/07/02 04:39:49;;;;;;;17.43;10.47;;;;;;;15.54;85.75;101568.50;4992432;28;20193;-74
2021/07/02 04:42:14;;;;;;;15.17;10.17;;;;;;;15.64;85.45;101584.25;4989108;28;20203;-76
2021/07/02 04:44:40;;;;;;;18.00;11.00;;;;;;;15.67;85.41;101573.84;4999498;28;20197;-72
2021/07/02 04:47:06;;;;;;;18.00;9.27;;;;;;;15.89;85.17;101581.69;4999166;28;20181;-74
2021/07/02 04:49:32;;;;;;;16.77;10.83;;;;;;;15.67;85.12;101581.13;4995542;28;21094;-76
2021/07/02 04:51:58;;;;;;;15.50;9.90;;;;;;;15.71;85.25;101588.66;4986936;28;21012;-73
2021/07/02 04:54:23;;;;;;;16.43;8.93;;;;;;;15.84;84.99;101593.16;5000075;28;20547;-75
2021/07/02 04:56:50;;;;;;;15.87;10.70;;;;;;;15.76;85.39;101591.50;4996863;28;20196;-73
2021/07/02 04:59:17;;;;;;;17.60;10.40;;;;;;;15.91;84.79;101593.09;4993403;28;20185;-75
2021/07/02 05:01:42;;;;;;;13.63;9.10;;;;;;;15.92;84.55;101598.31;4998447;28;20456;-73
2021/07/02 05:04:08;;;;;;;20.33;12.00;;;;;;;15.62;85.10;101603.38;4997525;28;21202;-74
2021/07/02 05:06:33;;;;;;;12.97;9.70;;;;;;;15.66;85.47;101604.63;4991564;28;20194;-74
2021/07/02 05:09:00;;;;;;;14.40;10.00;;;;;;;15.79;84.97;101607.34;5000725;28;20182;-74
2021/07/02 05:11:25;;;;;;;14.63;10.30;;;;;;;15.85;84.62;101612.91;4997563;28;20209;-75
2021/07/02 05:13:51;;;;;;;17.63;9.43;;;;;;;15.91;84.40;101612.91;4994134;28;20586;-74
2021/07/02 05:16:22;;;;;;;13.90;9.07;;;;;;;16.14;84.05;101614.22;4997493;28;20812;-73
2021/07/02 05:18:48;;;;;;;13.80;9.17;;;;;;;16.05;84.07;101613.63;4999661;28;20178;-74
2021/07/02 05:21:13;;;;;;;13.93;9.43;;;;;;;15.86;84.26;101612.72;5016561;28;20486;-74
2021/07/02 05:23:39;;;;;;;12.77;9.17;;;;;;;15.89;84.03;101623.09;4989394;28;20622;-73
2021/07/02 05:26:04;;;;;;;14.30;9.50;;;;;;;15.74;84.56;101614.44;4991439;28;20197;-76
2021/07/02 05:28:30;;;;;;;16.23;10.77;;;;;;;15.62;84.85;101626.91;4993916;28;20197;-72
2021/07/02 05:30:56;;;;;;;14.93;10.33;;;;;;;15.48;85.33;101616.16;4994022;28;20686;-71
2021/07/02 05:33:21;;;;;;;17.03;11.13;;;;;;;15.73;84.30;101637.09;4996148;28;20440;-73
2021/07/02 05:35:47;;;;;;;14.13;9.30;;;;;;;15.34;84.84;101577.50;4993535;28;20212;-72
2021/07/02 05:38:30;;;;;;;13.50;9.60;;;;;;;15.92;83.57;101638.06;5000538;28;20702;-73
2021/07/02 05:40:56;;;;;;;14.03;8.97;;;;;;;15.89;83.75;101623.09;4994618;28;20239;-72
2021/07/02 05:43:22;;;;;;;15.03;10.03;;;;;;;16.05;83.26;101627.16;4997243;28;20448;-73
2021/07/02 05:45:48;;;;;;;16.83;9.00;;;;;;;15.97;83.02;101622.84;4998784;28;20201;-72
2021/07/02 05:48:16;;;;;;;16.00;10.00;;;;;;;15.70;84.47;101629.41;4996429;28;20867;-73
2021/07/02 05:50:42;;;;;;;14.47;9.10;;;;;;;15.82;84.01;101638.50;4993135;28;20296;-73
2021/07/02 05:53:08;;;;;;;14.23;9.10;;;;;;;15.91;84.25;101636.41;4998553;28;20535;-75
2021/07/02 05:55:33;;;;;;;17.00;10.43;;;;;;;15.94;83.38;101635.97;5001248;28;20248;-73
2021/07/02 05:58:00;;;;;;;19.17;10.87;;;;;;;15.68;83.92;101615.25;4993146;28;20193;-75
2021/07/02 06:00:26;;;;;;;14.13;9.43;;;;;;;15.53;84.18;101600.09;4997154;28;20696;-74
2021/07/02 06:02:51;;;;;;;14.10;10.63;;;;;;;15.95;83.59;101649.28;5002284;28;20528;-77
2021/07/02 06:05:17;;;;;;;19.03;9.07;;;;;;;16.07;82.97;101643.22;4999808;28;20260;-73
2021/07/02 06:07:44;;;;;;;19.13;9.87;;;;;;;15.90;83.91;101640.97;4996411;28;20200;-74
2021/07/02 06:10:11;;;;;;;14.53;10.10;;;;;;;15.86;82.88;101610.00;4995460;28;20209;-73
2021/07/02 06:12:37;;;;;;;16.13;10.17;;;;;;;16.28;81.93;101641.00;4995506;28;20455;-73
2021/07/02 06:15:05;;;;;;;15.77;10.17;;;;;;;15.86;83.10;101650.59;4998512;28;20464;-73
2021/07/02 06:17:31;;;;;;;20.77;9.73;;;;;;;16.15;82.40;101648.38;4998534;28;20573;-74
2021/07/02 06:20:05;;;;;;;10.70;8.90;;;;;;;15.52;82.83;101581.41;4991795;28;21023;-72
2021/07/02 06:22:31;;;;;;;13.73;9.17;;;;;;;16.31;81.86;101636.19;4994203;28;20638;-72
2021/07/02 06:24:56;;;;;;;16.40;10.17;;;;;;;16.20;81.97;101640.41;4996827;28;20472;-70
2021/07/02 06:27:22;;;;;;;15.13;8.70;;;;;;;16.10;81.77;101618.41;4987550;28;20189;-73
2021/07/02 06:29:50;;;;;;;16.90;10.37;;;;;;;16.38;80.83;101616.16;4996115;28;20641;-73
2021/07/02 06:32:15;;;;;;;15.63;10.10;;;;;;;15.92;82.79;101638.91;4996955;28;20239;-75
2021/07/02 06:34:44;;;;;;;13.13;9.87;;;;;;;15.23;83.09;101531.38;4999587;28;20957;-74
2021/07/02 06:37:09;;;;;;;13.10;9.63;;;;;;;15.72;83.13;101590.28;4995880;28;20654;-72
2021/07/02 06:39:35;;;;;;;16.37;10.83;;;;;;;16.05;82.75;101638.00;4994842;28;20486;-74
2021/07/02 06:42:04;;;;;;;14.30;9.60;;;;;;;16.10;82.73;101642.78;4991046;28;20217;-74
2021/07/02 06:44:29;;;;;;;14.47;9.67;;;;;;;16.35;81.82;101622.03;4985980;28;20299;-73
2021/07/02 06:46:55;;;;;;;16.60;9.97;;;;;;;16.46;81.52;101632.16;4982012;28;20446;-73
2021/07/02 06:49:20;;;;;;;15.87;10.07;;;;;;;16.22;82.20;101620.22;4990173;28;20372;-73
2021/07/02 06:51:45;;;;;;;12.37;8.70;;;;;;;15.73;82.92;101553.25;4985018;28;20220;-72
2021/07/02 06:54:11;;;;;;;17.73;11.40;;;;;;;16.07;82.52;101611.56;4990254;28;20271;-73
2021/07/02 06:56:37;;;;;;;15.37;10.10;;;;;;;16.16;82.18;101612.13;4987175;28;20249;-73
2021/07/02 06:59:02;;;;;;;14.90;9.70;;;;;;;16.33;82.06;101639.53;4992005;28;20178;-74
2021/07/02 07:01:28;;;;;;;15.80;10.07;;;;;;;16.65;81.20;101630.34;4997488;28;20213;-74
2021/07/02 07:03:57;;;;;;;14.00;9.43;;;;;;;16.45;81.29;101632.38;5004330;28;20221;-73
2021/07/02 07:06:22;;;;;;;19.40;9.40;;;;;;;16.31;82.12;101631.59;5004529;28;20192;-73
2021/07/02 07:08:48;;;;;;;20.93;11.07;;;;;;;15.84;82.23;101582.31;5001716;28;20449;-73
2021/07/02 07:11:13;;;;;;;14.30;10.37;;;;;;;16.35;81.14;101623.91;4999115;28;20291;-73
2021/07/02 07:13:41;;;;;;;15.00;9.83;;;;;;;16.38;81.06;101610.75;4999246;28;20191;-73
2021/07/02 07:16:07;;;;;;;15.63;10.07;;;;;;;16.38;81.03;101605.34;5000052;28;20556;-73
2021/07/02 07:18:33;;;;;;;16.60;11.40;;;;;;;16.77;80.23;101635.91;5003082;28;20447;-74
2021/07/02 07:20:58;;;;;;;16.37;11.30;;;;;;;16.46;80.40;101585.28;5002746;28;20451;-73
2021/07/02 07:23:23;;;;;;;16.50;12.23;;;;;;;16.30;81.51;101629.97;5003818;28;20177;-74
2021/07/02 07:25:49;;;;;;;15.90;10.83;;;;;;;16.11;80.89;101591.13;5000500;28;20178;-74
2021/07/02 07:28:15;;;;;;;18.97;12.63;;;;;;;16.39;80.98;101635.94;5005709;28;20182;-72
2021/07/02 07:30:40;;;;;;;16.07;10.77;;;;;;;16.55;80.75;101631.88;5001181;28;20297;-73
2021/07/02 07:33:06;;;;;;;14.40;10.50;;;;;;;16.48;80.50;101584.00;5004352;28;20543;-75
2021/07/02 07:35:40;;;;;;;13.77;9.60;;;;;;;16.60;79.33;101591.41;5005910;28;20874;-74
2021/07/02 07:38:06;;;;;;;16.10;10.67;;;;;;;16.99;79.63;101625.53;5000988;28;20192;-72
2021/07/02 07:40:32;;;;;;;15.20;10.30;;;;;;;16.94;78.67;101593.66;4998574;28;21299;-73
2021/07/02 07:42:59;;;;;;;16.63;10.73;;;;;;;16.99;79.36;101622.81;4996814;28;20231;-72
2021/07/02 07:45:26;;;;;;;14.83;10.00;;;;;;;17.10;77.85;101637.53;5000460;28;20193;-73
2021/07/02 07:47:52;;;;;;;11.83;9.10;;;;;;;16.72;77.77;101595.91;4985715;28;20590;-71
2021/07/02 07:50:26;;;;;;;15.27;9.47;;;;;;;17.02;77.34;101626.97;4997827;28;20956;-71
2021/07/02 07:55:17;;;;;;;14.00;9.23;;;;;;;17.07;77.60;101646.09;4996726;28;20479;-72
2021/07/02 07:57:43;;;;;;;13.03;8.20;;;;;;;17.29;77.46;101651.94;4997212;28;20189;-73
2021/07/02 08:00:09;;;;;;;12.30;10.20;;;;;;;16.88;77.98;101594.56;5001079;28;20220;-72
2021/07/02 08:02:34;;;;;;;12.70;9.93;;;;;;;17.35;78.13;101642.91;4996460;28;20193;-73
2021/07/02 08:04:59;;;;;;;14.43;10.83;;;;;;;17.29;78.02;101644.63;4989919;28;20437;-71
2021/07/02 08:07:25;;;;;;;14.30;10.40;;;;;;;17.36;77.87;101660.84;4990209;28;20243;-73
2021/07/02 08:09:50;;;;;;;17.10;11.27;;;;;;;16.85;76.76;101589.56;4995501;28;20189;-74
2021/07/02 08:12:17;;;;;;;15.03;10.23;;;;;;;17.26;77.19;101636.94;4990929;28;20185;-73
2021/07/02 08:14:46;;;;;;;17.33;10.90;;;;;;;17.24;76.91;101616.50;4994844;28;20241;-73
2021/07/02 08:17:12;;;;;;;14.30;9.37;;;;;;;17.62;76.54;101652.41;4990471;28;20436;-73
2021/07/02 08:19:37;;;;;;;14.20;10.13;;;;;;;17.42;74.62;101657.22;4990834;28;20476;-72
2021/07/02 08:22:03;;;;;;;9.93;8.07;;;;;;;17.82;74.77;101654.13;4993946;28;20182;-74
2021/07/02 08:24:29;;;;;;;14.63;10.30;;;;;;;17.23;74.53;101577.75;4993019;28;20607;-71
2021/07/02 08:26:58;;;;;;;11.77;9.17;;;;;;;17.66;74.46;101654.69;4996673;28;20445;-71
2021/07/02 08:29:27;;;;;;;12.37;9.70;;;;;;;17.53;74.61;101650.22;5004374;28;20196;-71
2021/07/02 08:31:54;;;;;;;13.60;8.13;;;;;;;17.59;75.25;101654.75;4990290;28;20468;-71
2021/07/02 08:34:20;;;;;;;15.30;10.10;;;;;;;17.40;75.52;101641.16;4994513;28;20958;-72
2021/07/02 08:36:45;;;;;;;15.90;10.00;;;;;;;17.44;75.38;101654.28;4997309;28;20444;-71
2021/07/02 08:39:11;;;;;;;14.40;9.63;;;;;;;17.55;75.59;101651.66;4990911;28;20236;-71
2021/07/02 08:41:38;;;;;;;15.17;10.13;;;;;;;17.69;75.95;101655.06;4984460;28;20216;-72
2021/07/02 08:44:04;;;;;;;19.63;10.50;;;;;;;17.59;75.68;101650.16;4989331;28;20239;-71
2021/07/02 08:46:30;;;;;;;13.97;9.07;;;;;;;17.81;75.37;101661.41;4993064;28;20424;-72
2021/07/02 08:48:58;;;;;;;16.80;10.23;;;;;;;17.86;75.27;101657.19;4990061;28;20486;-71
2021/07/02 08:51:24;;;;;;;12.47;8.90;;;;;;;17.95;73.89;101653.94;5002974;28;20247;-72
2021/07/02 08:53:50;;;;;;;10.83;9.10;;;;;;;18.03;74.52;101658.22;4990240;28;21011;-70
2021/07/02 08:56:18;;;;;;;17.47;10.27;;;;;;;17.80;74.73;101659.75;5011549;28;20433;-72
2021/07/02 08:58:43;;;;;;;19.50;10.90;;;;;;;17.60;75.88;101670.78;5001393;28;20296;-71
2021/07/02 09:01:09;;;;;;;15.13;10.17;;;;;;;17.57;76.22;101663.09;5001130;28;20871;-71
2021/07/02 09:03:36;;;;;;;13.57;9.67;;;;;;;17.56;75.55;101663.31;4999671;28;20193;-71
2021/07/02 09:06:17;;;;;;;11.90;8.77;;;;;;;17.58;75.13;101663.94;4997409;28;20363;-71
2021/07/02 09:09:07;;;;;;;13.23;8.83;;;;;;;17.54;76.12;101663.56;4998390;28;20420;-72
2021/07/02 09:11:34;;;;;;;16.17;11.37;;;;;;;17.45;76.74;101659.50;5005726;28;20506;-72
2021/07/02 09:14:01;;;;;;;11.73;9.60;;;;;;;17.43;77.12;101649.91;4999218;28;20487;-72
2021/07/02 09:16:36;;;;;;;13.03;10.03;;;;;;;17.46;77.13;101661.13;4995362;28;20462;-72
2021/07/02 09:19:27;;;;;;;14.30;9.20;;;;;;;17.58;76.09;101666.66;4999332;28;20421;-75
2021/07/02 09:22:19;;;;;;;20.97;11.07;;;;;;;17.30;76.43;101659.84;4996917;28;20482;-74
2021/07/02 09:24:48;;;;;;;22.03;12.73;;;;;;;17.57;76.58;101662.28;5001728;28;20556;-72
2021/07/02 09:27:29;;;;;;;17.53;11.10;;;;;;;17.50;76.92;101672.34;5017668;28;20800;-72
2021/07/02 09:30:08;;;;;;;15.73;11.87;;;;;;;17.49;77.41;101670.72;5000035;28;20981;-72
2021/07/02 09:32:39;;;;;;;15.30;11.83;;;;;;;17.42;77.70;101668.06;4989567;28;20489;-72
2021/07/02 09:35:04;;;;;;;15.70;11.47;;;;;;;17.69;77.17;101679.47;4988908;28;20457;-72
2021/07/02 09:37:54;;;;;;;15.20;10.70;;;;;;;17.62;76.60;101679.56;4988012;28;20470;-71
2021/07/02 09:40:31;;;;;;;14.83;11.40;;;;;;;17.68;76.28;101669.69;4986319;28;20205;-71
2021/07/02 09:43:10;;;;;;;17.30;12.00;;;;;;;17.73;76.60;101685.25;4991039;28;20463;-72
2021/07/02 09:45:47;;;;;;;13.67;11.40;;;;;;;17.55;76.82;101680.66;4990337;28;20420;-72
2021/07/02 09:48:15;;;;;;;19.73;12.00;;;;;;;17.70;77.17;101683.81;4990407;28;20530;-73
2021/07/02 09:50:48;;;;;;;16.27;10.47;;;;;;;17.47;77.34;101651.94;4983859;28;20474;-72
2021/07/02 09:53:18;;;;;;;16.07;12.23;;;;;;;17.38;77.23;101661.44;4985059;28;21181;-72
2021/07/02 09:55:46;;;;;;;17.63;12.40;;;;;;;17.68;77.05;101690.56;4988399;28;20456;-72
2021/07/02 09:58:23;;;;;;;15.13;11.90;;;;;;;17.68;76.46;101672.41;4989915;28;20923;-73
2021/07/02 10:00:57;;;;;;;15.97;11.03;;;;;;;17.79;77.03;101698.81;4988978;28;20522;-72
2021/07/02 10:03:24;;;;;;;16.37;12.67;;;;;;;17.67;77.09;101700.56;4991724;28;20937;-72
2021/07/02 10:05:53;;;;;;;17.60;12.97;;;;;;;17.66;76.72;101700.81;4994565;28;20462;-73
2021/07/02 10:08:21;;;;;;;20.80;12.30;;;;;;;17.39;76.83;101671.25;4990051;28;20920;-72
2021/07/02 10:10:52;;;;;;;18.17;11.90;;;;;;;17.55;76.77;101689.63;4988438;28;20455;-72
2021/07/02 10:13:20;;;;;;;19.33;12.10;;;;;;;17.53;76.56;101671.91;5000443;28;20448;-72
2021/07/02 10:15:45;;;;;;;16.00;11.20;;;;;;;17.80;75.49;101694.22;4993062;28;21272;-72
2021/07/02 10:18:14;;;;;;;13.97;11.47;;;;;;;17.67;74.96;101703.28;4993602;28;20451;-72
2021/07/02 10:20:41;;;;;;;14.63;9.80;;;;;;;17.77;75.43;101667.50;4994566;28;20292;-71
2021/07/02 10:23:07;;;;;;;16.80;11.50;;;;;;;18.05;75.43;101694.94;4994575;28;21267;-73
2021/07/02 10:25:33;;;;;;;15.27;11.53;;;;;;;18.18;75.08;101696.66;4993139;28;20581;-76
2021/07/02 10:27:59;;;;;;;14.70;11.00;;;;;;;17.65;74.92;101610.44;4998063;28;20552;-72
2021/07/02 10:30:25;;;;;;;17.83;10.33;;;;;;;18.26;75.45;101693.63;4995211;28;20209;-72
2021/07/02 10:32:56;;;;;;;15.60;11.27;;;;;;;18.23;75.19;101702.25;5001781;28;20519;-74
2021/07/02 10:35:23;;;;;;;18.63;10.40;;;;;;;18.03;75.56;101705.19;4999286;28;20558;-72
2021/07/02 10:37:54;;;;;;;14.27;10.67;;;;;;;18.02;74.97;101680.97;4989936;28;20441;-72
2021/07/02 10:40:33;;;;;;;14.43;10.43;;;;;;;17.93;74.88;101709.50;4989360;28;20460;-73
2021/07/02 10:43:17;;;;;;;12.87;8.67;;;;;;;18.19;73.72;101694.78;4998425;28;20428;-73
2021/07/02 10:46:07;;;;;;;18.00;11.17;;;;;;;18.12;74.27;101708.44;4995960;28;20441;-73
2021/07/02 10:48:48;;;;;;;13.70;10.30;;;;;;;18.35;74.84;101715.06;4990852;28;20435;-72
2021/07/02 10:51:34;;;;;;;17.00;11.30;;;;;;;18.37;73.96;101721.06;4987842;28;20467;-72
2021/07/02 10:54:23;;;;;;;14.67;10.20;;;;;;;18.35;73.61;101718.59;4992075;28;20431;-72
2021/07/02 10:56:57;;;;;;;15.80;10.87;;;;;;;18.42;74.08;101710.34;4993751;28;20450;-72
2021/07/02 10:59:37;;;;;;;14.83;9.10;;;;;;;18.84;73.60;101715.84;4987031;28;20567;-72
2021/07/02 11:02:03;;;;;;;11.90;8.73;;;;;;;18.68;70.51;101723.56;4987953;28;20546;-72
2021/07/02 11:04:48;;;;;;;13.03;9.77;;;;;;;18.52;72.89;101721.50;4996031;28;20539;-72
2021/07/02 11:07:13;;;;;;;14.43;10.60;;;;;;;18.19;73.82;101725.47;4991489;28;20649;-72
2021/07/02 11:09:59;;;;;;;15.53;11.20;;;;;;;18.10;74.84;101717.88;4998375;28;20443;-72
2021/07/02 11:12:25;;;;;;;14.33;10.27;;;;;;;18.31;74.85;101720.09;4992706;28;20286;-72
2021/07/02 11:14:57;;;;;;;10.00;8.47;;;;;;;18.45;74.47;101728.91;4987241;28;20550;-71
2021/07/02 11:17:26;;;;;;;16.73;11.37;;;;;;;18.33;74.79;101723.41;4988579;28;20181;-72